PANO2: Poteau River At Panama

Data processed at Mon Dec 17 2018 23:32


All information presented herein is the property of the government of the United States of America and may be revised or deleted at any time without prior notice.
Dissemination of this information without the expressed written consent of the Public Affairs Office, Tulsa District U.S. Army Corps of Engineers is strictly prohibited.
These data are gathered electronically and, as presented, have not undergone any form of quality control. These data are not guaranteed to be valid or correct.
Go to home page.
Go to station list.
Go to home page.

Upstream stations:

Downstream station:
Previous Day
Next Day
Current Day
    
SHEF ID:       PANO2     Poteau River near Panama, OK
STATION TYPE:  

               PRECIP     STAGE  RIV-FLOW  BAT-LOAD
                   in        ft       cfs      volt
              Ccp-Rev   Ccp-Rev   Ccp-Rev   Ccp-Rev
(US/Central)
12/17 00:00      0.00     17.79      3868     12.49
12/17 01:00      0.00     17.42      3703     12.49
12/17 02:00      0.00     17.07      3549     12.49
12/17 03:00      0.00     16.74      3406     12.41
12/17 04:00      0.00     16.45      3281     12.41
12/17 05:00      0.00     16.17      3163     12.41
12/17 06:00      0.00     15.91      3054     12.41
12/17 07:00      0.00     15.68      2959     12.41
12/17 08:00      0.00     15.45      2865     12.41
12/17 09:00      0.00     15.25      2784     12.41
12/17 10:00      0.00     15.06      2708     12.65
12/17 11:00      0.00     14.89      2640     12.73
12/17 12:00      0.00     14.73      2577     12.81
12/17 13:00      0.00     14.56      2511     13.05
12/17 14:00      0.00     14.42      2457     13.05
12/17 15:00      0.00     14.28      2403     12.89
12/17 16:00      0.00     14.15      2353     12.81
12/17 17:00      0.00     14.03      2308     12.81
12/17 18:00      0.00     13.92      2267     12.73
12/17 19:00      0.00     13.85      2241     12.65
12/17 20:00      0.00     13.83      2233     12.65
12/17 21:00      0.00     13.95      2278     12.65
12/17 22:00      0.00     14.21      2376     12.57
12/17 23:00      0.00     14.60      2526     12.57